Time;durP1;ratioP1;P1;durP2;ratioP2;P2;SDS_P1;SDS_P2;PMS_P1;PMS_P2;Temp;Humidity;BMP_temperature;BMP_pressure;BME280_temperature;BME280_humidity;BME280_pressure;Samples;Min_cycle;Max_cycle;Signal;HPM_P1;HPM_P2
2023/03/12 00:01:18;;;;;;;2.20;1.60;;;;;;;-0.65;67.78;94672.31;106643;1276;25324;-70
2023/03/12 00:03:47;;;;;;;2.10;1.40;;;;;;;-0.63;68.10;94674.59;106572;1276;25479;-70
2023/03/12 00:06:17;;;;;;;2.20;1.60;;;;;;;-0.63;67.40;94674.92;106625;1276;22639;-70
2023/03/12 00:08:47;;;;;;;4.00;1.80;;;;;;;-0.62;68.36;94678.55;106712;1276;25334;-70
2023/03/12 00:11:18;;;;;;;2.40;1.70;;;;;;;-0.61;68.22;94685.13;106668;1276;24267;-70
2023/03/12 00:13:54;;;;;;;2.80;1.60;;;;;;;-0.56;67.96;94686.92;106644;1276;25466;-70
2023/03/12 00:16:23;;;;;;;2.50;1.50;;;;;;;-0.49;68.08;94690.95;106572;1276;24711;-70
2023/03/12 00:18:54;;;;;;;2.90;1.70;;;;;;;-0.48;68.16;94686.29;106662;1276;22646;-70
2023/03/12 00:21:23;;;;;;;2.80;1.70;;;;;;;-0.51;68.24;94689.89;106640;1276;25214;-70
2023/03/12 00:23:51;;;;;;;3.20;1.90;;;;;;;-0.52;68.10;94698.00;106659;1276;22521;-70
2023/03/12 00:26:20;;;;;;;3.10;2.10;;;;;;;-0.52;68.19;94699.89;106628;1276;22525;-70
2023/03/12 00:28:49;;;;;;;1.10;0.70;;;;;;;-0.56;68.15;94697.10;106640;1276;22533;-70
2023/03/12 00:31:19;;;;;;;2.80;1.80;;;;;;;-0.63;68.54;94705.50;106662;1276;22623;-70
2023/03/12 00:33:49;;;;;;;2.10;1.40;;;;;;;-0.74;68.88;94706.77;106576;1276;22613;-70
2023/03/12 00:36:20;;;;;;;1.90;1.60;;;;;;;-0.76;68.96;94713.31;106681;1276;22521;-70
2023/03/12 00:38:49;;;;;;;2.80;2.20;;;;;;;-0.77;69.13;94720.38;106654;1276;22587;-69
2023/03/12 00:41:20;;;;;;;2.40;2.10;;;;;;;-0.78;69.93;94730.02;106671;1276;24340;-70
2023/03/12 00:43:49;;;;;;;4.00;2.40;;;;;;;-0.89;70.98;94722.84;106570;1276;25478;-70
2023/03/12 00:46:19;;;;;;;2.70;1.80;;;;;;;-0.93;71.11;94732.11;106623;1276;25259;-70
2023/03/12 00:48:47;;;;;;;2.40;1.90;;;;;;;-1.03;71.51;94735.27;106644;1276;22640;-69
2023/03/12 00:51:15;;;;;;;3.90;2.10;;;;;;;-1.05;71.36;94746.98;106617;1276;24212;-69
2023/03/12 00:53:44;;;;;;;4.40;2.00;;;;;;;-1.08;70.11;94744.02;106601;1276;22781;-69
2023/03/12 00:56:12;;;;;;;3.50;2.00;;;;;;;-1.10;69.53;94744.86;106688;1264;22518;-69
2023/03/12 00:58:41;;;;;;;3.50;2.20;;;;;;;-1.10;69.69;94751.41;106674;1276;22559;-69
2023/03/12 01:01:10;;;;;;;2.20;1.90;;;;;;;-1.07;69.95;94745.05;106676;1276;24361;-69
2023/03/12 01:03:38;;;;;;;3.20;2.00;;;;;;;-1.06;69.99;94741.61;106659;1276;22517;-69
2023/03/12 01:06:08;;;;;;;3.10;1.90;;;;;;;-1.05;69.47;94743.89;106823;1276;22543;-69
2023/03/12 01:08:37;;;;;;;3.10;1.80;;;;;;;-1.02;69.07;94743.74;106844;1276;22525;-69
2023/03/12 01:11:05;;;;;;;2.50;1.50;;;;;;;-0.97;69.08;94751.58;106992;1276;22743;-69
2023/03/12 01:13:33;;;;;;;2.20;1.50;;;;;;;-0.96;69.14;94744.52;106819;1276;22545;-69
2023/03/12 01:16:02;;;;;;;1.50;1.20;;;;;;;-0.94;68.65;94748.85;106612;1276;22545;-69
2023/03/12 01:18:30;;;;;;;3.70;1.80;;;;;;;-0.95;68.25;94744.35;106647;1276;22637;-69
2023/03/12 01:20:58;;;;;;;3.90;2.00;;;;;;;-0.97;68.81;94754.34;106669;1276;22639;-69
2023/03/12 01:23:27;;;;;;;2.20;1.60;;;;;;;-0.99;68.58;94755.86;106578;1276;25472;-69
2023/03/12 01:25:55;;;;;;;3.40;1.60;;;;;;;-1.05;68.98;94764.76;106658;1276;23145;-69
2023/03/12 01:28:25;;;;;;;2.00;1.40;;;;;;;-1.09;68.93;94768.01;106566;1276;22796;-69
2023/03/12 01:30:53;;;;;;;3.70;2.00;;;;;;;-1.14;69.96;94766.73;106591;1276;22622;-69
2023/03/12 01:33:21;;;;;;;2.30;1.70;;;;;;;-1.16;70.01;94770.50;106628;1276;22706;-69
2023/03/12 01:35:50;;;;;;;3.70;2.50;;;;;;;-1.19;69.48;94773.05;106611;1276;22639;-69
2023/03/12 01:38:19;;;;;;;3.00;2.10;;;;;;;-1.27;69.00;94773.10;106695;1276;22778;-69
2023/03/12 01:40:48;;;;;;;2.90;1.90;;;;;;;-1.33;68.49;94782.18;106641;1276;24121;-69
2023/03/12 01:43:34;;;;;;;3.20;2.30;;;;;;;-1.36;68.70;94785.23;106543;1276;23021;-69
2023/03/12 01:46:24;;;;;;;2.10;1.40;;;;;;;-1.40;68.56;94788.79;106708;1276;24199;-69
2023/03/12 01:49:11;;;;;;;1.90;1.60;;;;;;;-1.46;67.44;94790.78;106852;1276;26647;-69
2023/03/12 01:51:53;;;;;;;3.10;1.80;;;;;;;-1.48;67.21;94793.00;106615;1276;25380;-69
2023/03/12 01:54:29;;;;;;;2.10;1.80;;;;;;;-1.53;66.51;94790.34;106679;1276;23005;-69
2023/03/12 01:57:00;;;;;;;1.90;1.30;;;;;;;-1.55;66.57;94798.94;106597;1276;22556;-69
2023/03/12 01:59:34;;;;;;;2.40;1.70;;;;;;;-1.59;65.74;94798.19;106632;1276;22517;-69
2023/03/12 02:02:04;;;;;;;1.50;1.30;;;;;;;-1.63;65.49;94800.04;106614;1276;26570;-69
2023/03/12 02:04:33;;;;;;;2.60;1.60;;;;;;;-1.63;66.06;94801.76;106553;1276;22543;-69
2023/03/12 02:07:28;;;;;;;1.70;1.40;;;;;;;-1.63;65.94;94803.82;106727;1276;22800;-69
2023/03/12 02:09:57;;;;;;;9.70;3.40;;;;;;;-1.67;65.29;94803.42;106582;1276;24479;-69
2023/03/12 02:12:25;;;;;;;1.80;1.20;;;;;;;-1.68;65.24;94803.05;106629;1276;22601;-69
2023/03/12 02:14:54;;;;;;;2.50;1.60;;;;;;;-1.71;64.70;94804.21;106606;1276;22612;-69
2023/03/12 02:17:23;;;;;;;3.20;1.60;;;;;;;-1.70;65.15;94804.91;106724;1276;22524;-69
2023/03/12 02:20:16;;;;;;;2.40;1.80;;;;;;;-1.69;64.89;94805.97;106602;1276;25275;-69
2023/03/12 02:22:53;;;;;;;1.90;1.30;;;;;;;-1.67;64.64;94813.75;106614;1276;22636;-69
2023/03/12 02:25:42;;;;;;;2.10;1.40;;;;;;;-1.69;65.03;94818.56;106546;1276;22591;-69
2023/03/12 02:28:17;;;;;;;1.80;1.40;;;;;;;-1.66;65.81;94819.45;106598;1273;23907;-69
2023/03/12 02:30:48;;;;;;;3.80;1.70;;;;;;;-1.67;65.44;94816.69;106611;1276;22527;-69
2023/03/12 02:33:16;;;;;;;3.10;1.80;;;;;;;-1.67;65.43;94821.69;106602;1276;25287;-69
2023/03/12 02:35:46;;;;;;;2.80;1.80;;;;;;;-1.70;65.33;94822.85;106601;1276;25303;-69
2023/03/12 02:38:49;;;;;;;2.60;1.60;;;;;;;-1.72;66.17;94826.95;106601;1276;22515;-69
2023/03/12 02:41:29;;;;;;;3.10;1.80;;;;;;;-1.75;65.78;94832.43;106399;1276;24868;-70
2023/03/12 02:44:03;;;;;;;2.90;1.90;;;;;;;-1.75;66.16;94834.31;106612;1276;22520;-69
2023/03/12 02:46:37;;;;;;;3.30;2.20;;;;;;;-1.75;66.16;94839.84;106582;1254;22523;-69
2023/03/12 02:49:05;;;;;;;2.00;1.40;;;;;;;-1.74;66.23;94840.02;106577;1276;24197;-69
2023/03/12 02:51:34;;;;;;;3.50;1.80;;;;;;;-1.76;65.84;94841.91;106613;1263;22636;-69
2023/03/12 02:54:03;;;;;;;2.30;1.60;;;;;;;-1.76;65.78;94842.42;106636;1276;22632;-69
2023/03/12 02:56:32;;;;;;;2.50;1.50;;;;;;;-1.76;65.93;94847.60;106675;1276;24250;-69
2023/03/12 02:59:00;;;;;;;1.50;1.30;;;;;;;-1.75;65.92;94855.02;106583;1276;25517;-69
2023/03/12 03:01:32;;;;;;;3.20;1.50;;;;;;;-1.74;65.72;94860.20;106535;1276;24259;-69
2023/03/12 03:04:02;;;;;;;3.90;2.00;;;;;;;-1.73;65.34;94861.59;106680;1276;22539;-69
2023/03/12 03:06:31;;;;;;;3.50;1.60;;;;;;;-1.72;65.32;94863.67;106588;1276;22514;-69
2023/03/12 03:08:59;;;;;;;2.90;1.70;;;;;;;-1.74;65.30;94865.20;106598;1276;22524;-69
2023/03/12 03:11:28;;;;;;;2.70;1.70;;;;;;;-1.75;65.97;94866.05;106591;1276;22536;-69
2023/03/12 03:13:56;;;;;;;2.00;1.60;;;;;;;-1.77;66.00;94868.27;106651;1276;22518;-69
2023/03/12 03:16:25;;;;;;;3.10;1.80;;;;;;;-1.77;65.48;94872.22;106608;1276;24202;-69
2023/03/12 03:18:53;;;;;;;3.20;1.90;;;;;;;-1.77;65.44;94874.11;106636;1276;25422;-69
2023/03/12 03:21:22;;;;;;;3.30;1.80;;;;;;;-1.78;65.62;94878.08;106575;1276;25322;-69
2023/03/12 03:23:51;;;;;;;3.20;1.70;;;;;;;-1.78;65.77;94882.73;106619;1276;25211;-69
2023/03/12 03:26:21;;;;;;;2.80;1.80;;;;;;;-1.80;65.77;94884.75;106637;1276;22793;-69
2023/03/12 03:28:50;;;;;;;2.50;1.80;;;;;;;-1.80;65.63;94887.35;106639;1276;24265;-69
2023/03/12 03:31:19;;;;;;;2.40;1.90;;;;;;;-1.81;65.54;94891.97;106618;1276;25268;-69
2023/03/12 03:33:48;;;;;;;1.90;1.60;;;;;;;-1.79;65.72;94893.73;106583;1276;22950;-69
2023/03/12 03:36:18;;;;;;;5.10;2.80;;;;;;;-1.80;65.77;94898.20;106694;1276;24293;-69
2023/03/12 03:38:58;;;;;;;2.60;1.80;;;;;;;-1.81;64.98;94900.93;106577;1276;22530;-68
2023/03/12 03:41:27;;;;;;;3.80;1.70;;;;;;;-1.84;64.51;94902.27;106643;1276;22651;-68
2023/03/12 03:43:57;;;;;;;2.50;1.80;;;;;;;-1.83;65.00;94909.02;106551;1276;24373;-68
2023/03/12 03:46:26;;;;;;;2.70;2.10;;;;;;;-1.85;64.78;94912.61;106688;1276;22521;-68
2023/03/12 03:49:00;;;;;;;3.50;2.00;;;;;;;-1.83;64.92;94913.84;106714;1276;22650;-69
2023/03/12 03:51:28;;;;;;;3.80;2.20;;;;;;;-1.82;64.97;94922.14;106696;1276;25278;-68
2023/03/12 03:53:59;;;;;;;3.00;1.90;;;;;;;-1.80;64.96;94928.38;106658;1276;24316;-68
2023/03/12 03:56:28;;;;;;;3.40;2.20;;;;;;;-1.81;64.42;94928.70;106690;1276;25449;-68
2023/03/12 03:58:57;;;;;;;2.60;1.80;;;;;;;-1.84;64.48;94931.23;106692;1276;22776;-68
2023/03/12 04:01:27;;;;;;;2.60;1.70;;;;;;;-1.86;64.62;94932.57;106631;1276;25291;-68
2023/03/12 04:03:56;;;;;;;1.80;1.60;;;;;;;-1.88;64.57;94936.85;106609;1276;22644;-69
2023/03/12 04:06:25;;;;;;;4.20;1.90;;;;;;;-1.93;64.48;94946.39;106689;1276;22540;-68
2023/03/12 04:08:53;;;;;;;3.10;2.10;;;;;;;-1.98;64.72;94949.75;106632;1276;22756;-68
2023/03/12 04:11:23;;;;;;;2.60;1.60;;;;;;;-2.02;64.91;94951.75;106582;1276;22598;-68
2023/03/12 04:13:51;;;;;;;4.10;2.10;;;;;;;-2.01;64.96;94953.49;106692;1276;25386;-68
2023/03/12 04:16:23;;;;;;;2.30;1.80;;;;;;;-2.02;64.92;94952.45;106562;1276;24215;-69
2023/03/12 04:18:52;;;;;;;4.20;2.40;;;;;;;-2.03;65.18;94953.63;106668;1275;22516;-68
2023/03/12 04:21:21;;;;;;;3.90;2.00;;;;;;;-2.03;65.42;94959.33;106568;1276;25382;-68
2023/03/12 04:23:49;;;;;;;4.00;1.80;;;;;;;-2.03;65.02;94955.52;106581;1276;24412;-68
2023/03/12 04:26:19;;;;;;;2.60;1.50;;;;;;;-2.03;65.13;94955.86;106609;1276;25549;-68
2023/03/12 04:28:47;;;;;;;2.10;1.50;;;;;;;-2.05;65.09;94958.75;106651;1276;24315;-68
2023/03/12 04:31:15;;;;;;;3.20;1.70;;;;;;;-2.07;65.00;94967.70;106571;1276;25387;-68
2023/03/12 04:33:50;;;;;;;2.00;1.70;;;;;;;-2.08;65.26;94973.70;106643;1276;22535;-68
2023/03/12 04:36:21;;;;;;;2.60;1.80;;;;;;;-2.10;64.70;94980.38;106639;1276;22592;-68
2023/03/12 04:38:50;;;;;;;2.90;1.90;;;;;;;-2.11;65.05;94983.29;106651;1276;22527;-68
2023/03/12 04:41:22;;;;;;;3.20;2.00;;;;;;;-2.13;65.04;94983.76;106572;1276;25395;-68
2023/03/12 04:44:04;;;;;;;3.20;2.10;;;;;;;-2.15;65.18;94985.77;106574;1276;25651;-68
2023/03/12 04:46:34;;;;;;;3.40;2.10;;;;;;;-2.14;65.26;94986.34;106618;1275;22516;-68
2023/03/12 04:49:03;;;;;;;4.70;2.50;;;;;;;-2.16;65.58;94988.54;106559;1276;26496;-68
2023/03/12 04:51:33;;;;;;;3.60;2.30;;;;;;;-2.23;65.82;94992.36;106662;1276;25392;-69
2023/03/12 04:54:02;;;;;;;4.40;2.40;;;;;;;-2.26;65.62;94997.12;106624;1276;24199;-68
2023/03/12 04:56:31;;;;;;;3.60;2.20;;;;;;;-2.28;65.90;95003.45;106614;1276;22571;-69
2023/03/12 04:58:59;;;;;;;6.40;2.70;;;;;;;-2.30;66.07;95010.83;106643;1276;23366;-68
2023/03/12 05:01:31;;;;;;;3.60;2.40;;;;;;;-2.32;65.70;95016.95;106557;1276;24330;-68
2023/03/12 05:04:01;;;;;;;3.30;2.10;;;;;;;-2.33;65.85;95021.77;106617;1276;22631;-68
2023/03/12 05:06:30;;;;;;;3.40;2.30;;;;;;;-2.32;66.08;95020.39;106598;1276;23478;-68
2023/03/12 05:08:59;;;;;;;3.30;2.20;;;;;;;-2.31;66.06;95028.71;106696;1276;24332;-68
2023/03/12 05:11:27;;;;;;;2.70;2.20;;;;;;;-2.30;66.37;95029.59;106655;1276;22628;-68
2023/03/12 05:13:56;;;;;;;6.40;3.80;;;;;;;-2.32;65.80;95030.40;106650;1276;25337;-68
2023/03/12 05:16:24;;;;;;;3.80;2.50;;;;;;;-2.32;66.34;95036.24;106621;1276;22531;-68
2023/03/12 05:18:53;;;;;;;5.80;3.00;;;;;;;-2.32;66.55;95042.46;106668;1276;22937;-68
2023/03/12 05:21:21;;;;;;;11.30;7.40;;;;;;;-2.31;66.46;95045.23;106567;1276;22524;-68
2023/03/12 05:23:52;;;;;;;13.20;7.60;;;;;;;-2.28;66.40;95045.98;106615;1275;24819;-68
2023/03/12 05:26:25;;;;;;;7.70;4.70;;;;;;;-2.27;66.61;95048.95;106562;1276;22524;-69
2023/03/12 05:29:00;;;;;;;8.40;4.00;;;;;;;-2.28;65.81;95053.58;106598;1276;24179;-68
2023/03/12 05:31:31;;;;;;;7.80;4.10;;;;;;;-2.29;65.82;95057.34;106663;1276;22695;-68
2023/03/12 05:34:02;;;;;;;7.20;3.50;;;;;;;-2.29;66.12;95062.67;106598;1276;25478;-68
2023/03/12 05:36:31;;;;;;;7.80;3.10;;;;;;;-2.30;66.02;95070.06;106568;1276;23871;-68
2023/03/12 05:38:59;;;;;;;5.00;2.70;;;;;;;-2.29;65.87;95074.06;106643;1276;22528;-68
2023/03/12 05:41:30;;;;;;;8.90;4.60;;;;;;;-2.21;65.62;95077.66;106643;1275;22557;-69
2023/03/12 05:44:03;;;;;;;12.70;5.80;;;;;;;-2.12;65.05;95083.38;106656;1276;22640;-68
2023/03/12 05:46:32;;;;;;;8.40;4.50;;;;;;;-2.06;65.19;95086.77;106640;1276;22749;-68
2023/03/12 05:49:00;;;;;;;6.20;3.40;;;;;;;-2.02;64.21;95092.39;106639;1276;22656;-68
2023/03/12 05:51:28;;;;;;;9.00;4.50;;;;;;;-1.96;64.64;95105.09;106623;1276;24206;-68
2023/03/12 05:53:58;;;;;;;8.10;4.80;;;;;;;-1.93;64.49;95110.50;106636;1276;22961;-68
2023/03/12 05:56:26;;;;;;;8.00;4.20;;;;;;;-1.93;64.34;95111.02;106545;1276;24254;-68
2023/03/12 05:58:55;;;;;;;6.20;3.10;;;;;;;-1.94;63.49;95115.84;106619;1276;25385;-68
2023/03/12 06:01:27;;;;;;;4.70;3.10;;;;;;;-2.00;62.91;95118.81;106660;1275;25319;-68
2023/03/12 06:03:58;;;;;;;4.90;2.90;;;;;;;-2.04;63.21;95125.62;106598;1276;22652;-68
2023/03/12 06:06:29;;;;;;;12.50;4.70;;;;;;;-2.02;63.62;95133.56;106676;1276;22548;-68
2023/03/12 06:08:57;;;;;;;7.90;4.30;;;;;;;-2.02;63.67;95144.77;106586;1276;25582;-68
2023/03/12 06:11:26;;;;;;;7.40;4.10;;;;;;;-1.98;63.87;95155.53;106523;1276;24356;-68
2023/03/12 06:13:55;;;;;;;4.30;3.00;;;;;;;-1.91;63.43;95159.33;106668;1275;22527;-68
2023/03/12 06:16:26;;;;;;;6.10;3.10;;;;;;;-1.82;63.34;95161.95;106685;1276;22520;-68
2023/03/12 06:18:56;;;;;;;10.40;5.50;;;;;;;-1.74;63.54;95161.75;106597;1276;24321;-68
2023/03/12 06:21:29;;;;;;;11.50;5.90;;;;;;;-1.67;63.40;95169.84;106621;1276;24370;-68
2023/03/12 06:23:58;;;;;;;10.70;5.60;;;;;;;-1.63;63.36;95167.50;106590;1276;25328;-68
2023/03/12 06:26:37;;;;;;;7.20;3.50;;;;;;;-1.59;64.02;95170.52;106561;1276;22800;-68
2023/03/12 06:29:05;;;;;;;9.10;4.00;;;;;;;-1.57;63.44;95182.47;106616;1276;22528;-68
2023/03/12 06:31:34;;;;;;;8.70;4.30;;;;;;;-1.48;62.99;95193.17;106622;1276;22540;-68
2023/03/12 06:34:05;;;;;;;8.40;4.20;;;;;;;-1.40;63.67;95195.60;106648;1276;24194;-68
2023/03/12 06:36:34;;;;;;;5.60;3.20;;;;;;;-1.28;63.58;95206.19;106636;1276;25662;-68
2023/03/12 06:39:05;;;;;;;4.70;3.20;;;;;;;-1.18;63.10;95199.31;106650;1276;25320;-68
2023/03/12 06:41:34;;;;;;;5.90;3.40;;;;;;;-1.09;62.85;95193.44;106654;1276;24410;-68
2023/03/12 06:44:04;;;;;;;5.20;3.40;;;;;;;-1.05;62.75;95196.97;106682;1276;23021;-69
2023/03/12 06:46:33;;;;;;;5.20;3.80;;;;;;;-1.02;62.55;95200.30;106588;1273;22610;-69
2023/03/12 06:49:01;;;;;;;5.90;3.10;;;;;;;-0.99;62.20;95202.27;106586;1276;22605;-68
2023/03/12 06:51:30;;;;;;;4.50;3.00;;;;;;;-1.02;61.88;95214.81;106595;1276;25504;-68
2023/03/12 06:54:01;;;;;;;6.40;3.40;;;;;;;-0.99;60.92;95214.52;106634;1276;23913;-68
2023/03/12 06:56:30;;;;;;;4.00;2.20;;;;;;;-0.89;61.91;95218.70;106661;1276;25381;-69
2023/03/12 06:58:58;;;;;;;5.20;3.00;;;;;;;-0.83;60.69;95221.73;106698;1276;24503;-68
2023/03/12 07:01:26;;;;;;;5.90;2.60;;;;;;;-0.77;60.22;95231.19;106636;1276;25335;-68
2023/03/12 07:03:54;;;;;;;4.40;2.30;;;;;;;-0.71;59.52;95231.30;106620;1276;22635;-68
2023/03/12 07:06:23;;;;;;;4.70;2.50;;;;;;;-0.66;59.29;95231.21;106577;1276;22777;-69
2023/03/12 07:08:51;;;;;;;8.20;3.70;;;;;;;-0.59;59.35;95236.36;106682;1276;23722;-69
2023/03/12 07:11:20;;;;;;;5.40;3.40;;;;;;;-0.55;58.78;95235.90;106546;1270;23268;-68
2023/03/12 07:13:48;;;;;;;4.30;2.40;;;;;;;-0.54;58.33;95243.88;106630;1275;25402;-69
2023/03/12 07:16:16;;;;;;;4.60;2.80;;;;;;;-0.54;58.13;95245.77;106619;1276;22527;-69
2023/03/12 07:18:45;;;;;;;4.50;2.60;;;;;;;-0.52;57.99;95251.67;106609;1275;24213;-69
2023/03/12 07:21:21;;;;;;;5.00;2.80;;;;;;;-0.54;56.82;95254.92;106642;1276;22624;-68
2023/03/12 07:23:49;;;;;;;4.80;2.80;;;;;;;-0.54;56.29;95257.17;106642;1276;24461;-69
2023/03/12 07:26:18;;;;;;;3.50;2.40;;;;;;;-0.55;55.55;95266.32;106606;1276;22636;-69
2023/03/12 07:28:46;;;;;;;4.60;2.60;;;;;;;-0.51;56.03;95272.09;106634;1275;24260;-69
2023/03/12 07:31:15;;;;;;;3.30;1.90;;;;;;;-0.38;56.85;95279.41;106639;1276;25623;-68
2023/03/12 07:33:43;;;;;;;4.20;2.30;;;;;;;-0.30;56.40;95283.35;106596;1272;22513;-69
2023/03/12 07:36:11;;;;;;;3.70;1.70;;;;;;;-0.24;56.63;95288.98;106614;1270;22566;-69
2023/03/12 07:38:40;;;;;;;4.80;3.00;;;;;;;-0.20;55.32;95287.48;106603;1276;22607;-69
2023/03/12 07:41:08;;;;;;;9.00;4.20;;;;;;;-0.21;54.29;95291.80;106502;1276;24357;-69
2023/03/12 07:43:37;;;;;;;6.00;2.80;;;;;;;-0.23;54.28;95291.95;106645;1276;25306;-70
2023/03/12 07:46:05;;;;;;;6.40;3.00;;;;;;;-0.17;55.27;95293.42;106660;1253;22653;-70
2023/03/12 07:48:33;;;;;;;4.60;2.00;;;;;;;-0.10;55.16;95291.83;106648;1276;22663;-70
2023/03/12 07:51:02;;;;;;;2.30;1.60;;;;;;;-0.06;54.93;95292.06;106634;1276;22530;-69
2023/03/12 07:53:30;;;;;;;1.90;1.40;;;;;;;-0.04;54.73;95304.05;106562;1276;25459;-69
2023/03/12 07:55:59;;;;;;;3.30;1.80;;;;;;;0.01;54.14;95301.17;106444;1276;24279;-69
2023/03/12 07:58:27;;;;;;;3.40;1.80;;;;;;;0.07;53.29;95295.92;106626;1275;24350;-69
2023/03/12 08:00:55;;;;;;;3.10;1.60;;;;;;;0.09;53.44;95298.38;106717;1276;22522;-69
2023/03/12 08:03:24;;;;;;;1.70;1.50;;;;;;;0.17;53.85;95305.26;106615;1276;24445;-69
2023/03/12 08:06:02;;;;;;;2.70;1.50;;;;;;;0.18;51.60;95309.60;106763;1276;22662;-69
2023/03/12 08:08:31;;;;;;;2.80;1.40;;;;;;;0.31;52.78;95307.72;106954;1276;24244;-69
2023/03/12 08:10:59;;;;;;;3.20;1.90;;;;;;;0.48;52.54;95305.23;106625;1276;25411;-69
2023/03/12 08:13:27;;;;;;;2.50;1.70;;;;;;;0.64;52.70;95303.39;106651;1276;26545;-69
2023/03/12 08:15:56;;;;;;;4.10;1.70;;;;;;;0.64;51.63;95298.36;106575;1276;22650;-69
2023/03/12 08:18:24;;;;;;;5.20;2.20;;;;;;;0.72;52.63;95298.33;106612;1276;24196;-70
2023/03/12 08:20:53;;;;;;;2.50;1.70;;;;;;;0.80;51.24;95301.89;106669;1276;22639;-70
2023/03/12 08:23:22;;;;;;;2.30;1.70;;;;;;;0.79;50.80;95306.90;106551;1276;25485;-69
2023/03/12 08:25:51;;;;;;;3.40;1.70;;;;;;;0.86;51.75;95313.23;106655;1276;24334;-69
2023/03/12 08:28:21;;;;;;;3.50;1.70;;;;;;;0.99;51.47;95314.45;106578;1276;22764;-70
2023/03/12 08:30:57;;;;;;;5.00;2.20;;;;;;;1.13;52.34;95319.83;106637;1276;22638;-70
2023/03/12 08:33:25;;;;;;;3.20;1.80;;;;;;;1.19;50.32;95328.23;106653;1276;24321;-70
2023/03/12 08:35:54;;;;;;;3.80;2.30;;;;;;;1.19;50.56;95329.09;106615;1276;22645;-70
2023/03/12 08:38:22;;;;;;;2.10;1.70;;;;;;;1.14;50.25;95332.33;106630;1276;22536;-70
2023/03/12 08:40:58;;;;;;;2.80;2.10;;;;;;;1.16;49.61;95327.66;106620;1276;24390;-70
2023/03/12 08:43:27;;;;;;;2.90;2.20;;;;;;;1.20;50.36;95329.45;106815;1276;22517;-70
2023/03/12 08:45:59;;;;;;;4.30;2.40;;;;;;;1.28;51.38;95332.50;106658;1276;22718;-70
2023/03/12 08:48:29;;;;;;;4.10;2.30;;;;;;;1.32;49.80;95334.64;106664;1276;25322;-71
2023/03/12 08:50:59;;;;;;;3.20;2.00;;;;;;;1.32;49.50;95333.94;106600;1276;22537;-70
2023/03/12 08:53:27;;;;;;;3.20;2.10;;;;;;;1.47;51.37;95333.77;106616;1276;22527;-70
2023/03/12 08:55:56;;;;;;;3.50;2.00;;;;;;;1.62;51.61;95339.85;106607;1276;22684;-70
2023/03/12 08:58:25;;;;;;;4.00;2.30;;;;;;;1.81;51.73;95337.11;106572;1276;25278;-71
2023/03/12 09:00:55;;;;;;;3.90;2.60;;;;;;;1.87;49.69;95343.60;106619;1276;22545;-71
2023/03/12 09:03:24;;;;;;;3.20;2.30;;;;;;;1.91;50.00;95344.52;106596;1276;24297;-71
2023/03/12 09:06:06;;;;;;;2.90;2.00;;;;;;;1.97;49.98;95347.17;106594;1276;24210;-71
2023/03/12 09:08:34;;;;;;;2.50;1.80;;;;;;;2.06;49.39;95355.25;106629;1276;25341;-71
2023/03/12 09:11:02;;;;;;;2.90;2.00;;;;;;;2.01;48.60;95361.27;106602;1276;22513;-71
2023/03/12 09:13:31;;;;;;;3.10;2.20;;;;;;;1.93;48.27;95361.02;106614;1276;24256;-71
2023/03/12 09:16:19;;;;;;;4.70;2.90;;;;;;;2.05;50.91;95358.88;106610;1276;24371;-71
2023/03/12 09:18:47;;;;;;;3.70;2.40;;;;;;;2.17;48.86;95359.34;106624;1254;22575;-71
2023/03/12 09:21:15;;;;;;;4.10;2.50;;;;;;;2.19;47.90;95361.27;106579;1276;22653;-71
2023/03/12 09:23:43;;;;;;;5.30;2.60;;;;;;;2.13;48.34;95359.30;106590;1276;22999;-72
2023/03/12 09:26:13;;;;;;;2.80;2.10;;;;;;;2.18;48.82;95362.83;106603;1276;22520;-71
2023/03/12 09:28:43;;;;;;;3.00;2.50;;;;;;;2.18;49.57;95359.52;106763;1276;25396;-71
2023/03/12 09:31:12;;;;;;;4.70;2.50;;;;;;;2.37;49.54;95357.63;106603;1276;22652;-71
2023/03/12 09:33:40;;;;;;;4.70;2.80;;;;;;;2.58;49.72;95349.64;106531;1276;22531;-71
2023/03/12 09:36:08;;;;;;;3.40;2.40;;;;;;;2.70;49.24;95353.03;106615;1276;22523;-71
2023/03/12 09:38:37;;;;;;;9.90;4.00;;;;;;;2.80;49.24;95352.42;106660;1276;22788;-71
2023/03/12 09:41:16;;;;;;;10.10;4.00;;;;;;;2.86;48.90;95356.64;106458;1276;22515;-71
2023/03/12 09:44:17;;;;;;;4.30;2.90;;;;;;;2.83;47.45;95356.96;106634;1262;24399;-72
2023/03/12 09:46:53;;;;;;;4.60;2.70;;;;;;;2.84;47.97;95355.23;106467;1276;22528;-71
2023/03/12 09:49:45;;;;;;;3.60;2.50;;;;;;;2.86;47.65;95355.41;106596;1276;22524;-72
2023/03/12 09:52:24;;;;;;;4.00;2.50;;;;;;;2.96;47.63;95354.98;106641;1276;24196;-71
2023/03/12 09:55:20;;;;;;;4.40;2.50;;;;;;;3.08;48.17;95359.23;106623;1276;25383;-71
2023/03/12 09:57:50;;;;;;;2.50;2.20;;;;;;;3.28;49.04;95361.95;106672;1276;22635;-71
2023/03/12 10:00:22;;;;;;;4.30;2.60;;;;;;;3.45;48.70;95359.09;106631;1276;25465;-71
2023/03/12 10:03:19;;;;;;;7.00;6.10;;;;;;;3.52;47.66;95360.15;106630;1276;24242;-70
2023/03/12 10:06:00;;;;;;;2.70;2.10;;;;;;;3.59;47.62;95360.55;106704;1276;25941;-71
2023/03/12 10:08:56;;;;;;;3.10;2.50;;;;;;;3.65;48.35;95361.44;106617;1276;22535;-71
2023/03/12 10:11:43;;;;;;;3.60;2.40;;;;;;;3.75;48.78;95362.52;106637;1276;24206;-70
2023/03/12 10:14:28;;;;;;;2.80;1.90;;;;;;;3.95;49.11;95363.64;106613;1276;25344;-71
2023/03/12 10:17:13;;;;;;;2.50;2.10;;;;;;;4.16;49.01;95363.35;106684;1276;25549;-71
2023/03/12 10:20:00;;;;;;;3.70;2.50;;;;;;;4.39;48.40;95367.92;106631;1276;22527;-71
2023/03/12 10:22:47;;;;;;;3.60;2.60;;;;;;;4.50;47.54;95364.44;106609;1276;24205;-72
2023/03/12 10:26:07;;;;;;;6.10;3.50;;;;;;;4.51;45.49;95363.05;106652;1276;22646;-72
2023/03/12 10:28:43;;;;;;;5.30;3.80;;;;;;;4.63;46.04;95363.08;106033;1284;22885;-72
2023/03/12 10:31:26;;;;;;;3.90;2.40;;;;;;;4.70;47.03;95360.98;105713;1268;1169812;-71
2023/03/12 10:33:57;;;;;;;7.50;5.50;;;;;;;4.86;46.40;95359.24;106592;1276;22538;-72
2023/03/12 10:36:35;;;;;;;4.10;2.10;;;;;;;4.83;45.81;95360.27;106671;1276;22528;-72
2023/03/12 10:39:11;;;;;;;4.20;2.60;;;;;;;4.95;46.27;95359.23;106611;1253;24176;-72
2023/03/12 10:41:41;;;;;;;4.20;2.20;;;;;;;4.95;45.06;95356.79;106606;1276;22648;-72
2023/03/12 10:44:19;;;;;;;4.40;3.30;;;;;;;4.69;44.85;95353.67;106604;1276;22524;-72
2023/03/12 10:46:58;;;;;;;3.20;2.10;;;;;;;4.75;46.36;95352.27;106598;1276;22656;-72
2023/03/12 10:49:30;;;;;;;3.90;2.90;;;;;;;5.04;46.08;95350.16;106565;1276;23140;-72
2023/03/12 10:52:15;;;;;;;5.90;2.60;;;;;;;5.21;44.87;95349.78;106616;1276;26713;-72
2023/03/12 10:54:47;;;;;;;4.80;3.00;;;;;;;5.34;44.94;95351.33;106594;1276;22624;-73
2023/03/12 10:57:15;;;;;;;2.50;2.10;;;;;;;5.62;44.44;95351.23;106590;1275;22740;-72
2023/03/12 10:59:46;;;;;;;2.60;2.10;;;;;;;6.02;44.67;95345.34;106708;1276;25411;-73
2023/03/12 11:02:29;;;;;;;4.70;1.80;;;;;;;6.63;43.30;95332.56;106689;1273;24374;-73
2023/03/12 11:04:59;;;;;;;3.70;2.70;;;;;;;7.26;39.90;95330.63;106658;1276;22793;-72
2023/03/12 11:07:34;;;;;;;4.20;2.60;;;;;;;7.66;38.89;95326.17;106642;1276;24080;-73
2023/03/12 11:10:15;;;;;;;2.80;2.10;;;;;;;7.81;38.88;95327.21;106677;1276;22647;-73
2023/03/12 11:12:55;;;;;;;4.00;2.40;;;;;;;8.11;38.76;95327.52;106815;1276;22541;-71
2023/03/12 11:15:36;;;;;;;3.60;2.80;;;;;;;8.67;38.74;95329.04;106853;1276;24037;-71
2023/03/12 11:18:24;;;;;;;3.30;2.60;;;;;;;8.92;36.08;95325.15;106623;1272;22661;-71
2023/03/12 11:20:56;;;;;;;4.60;3.40;;;;;;;9.30;36.98;95332.04;106916;1276;22724;-71
2023/03/12 11:23:29;;;;;;;3.70;3.10;;;;;;;9.51;35.98;95329.02;106840;1275;24354;-72
2023/03/12 11:26:04;;;;;;;4.30;2.70;;;;;;;9.59;35.99;95327.64;106815;1276;22517;-72
2023/03/12 11:28:39;;;;;;;5.90;3.80;;;;;;;10.03;35.17;95328.70;106811;1276;23908;-71
2023/03/12 11:31:20;;;;;;;6.20;3.10;;;;;;;9.94;33.84;95328.00;106812;1276;22523;-71
2023/03/12 11:33:51;;;;;;;2.80;2.20;;;;;;;9.92;34.31;95324.71;106994;1276;24337;-71
2023/03/12 11:36:29;;;;;;;2.70;2.20;;;;;;;10.43;34.35;95317.13;106973;1276;22646;-72
2023/03/12 11:39:21;;;;;;;3.50;2.30;;;;;;;10.77;32.31;95320.04;106958;1276;22654;-71
2023/03/12 11:42:09;;;;;;;3.90;2.80;;;;;;;11.03;32.39;95321.35;106446;1276;25468;-71
2023/03/12 11:44:47;;;;;;;2.90;2.60;;;;;;;11.19;31.75;95319.73;106711;1276;24256;-72
2023/03/12 11:47:27;;;;;;;3.50;2.60;;;;;;;11.43;31.57;95316.65;106610;1276;25265;-71
2023/03/12 11:50:20;;;;;;;3.40;2.60;;;;;;;11.60;31.29;95316.36;106631;1276;23754;-72